Time;durP1;ratioP1;P1;durP2;ratioP2;P2;SDS_P1;SDS_P2;PMS_P1;PMS_P2;Temp;Humidity;BMP_temperature;BMP_pressure;BME280_temperature;BME280_humidity;BME280_pressure;Samples;Min_cycle;Max_cycle;Signal;HPM_P1;HPM_P2
2023/04/07 00:00:51;;;;;;;33.80;26.23;;;7.40;99.90;;;;;;4977899;28;20433;-83
2023/04/07 00:03:17;;;;;;;34.93;26.23;;;7.40;99.90;;;;;;4954930;28;20589;-84
2023/04/07 00:05:43;;;;;;;34.80;25.30;;;7.40;99.90;;;;;;4974490;28;20068;-84
2023/04/07 00:08:08;;;;;;;34.87;25.20;;;7.40;99.90;;;;;;4985908;28;20503;-84
2023/04/07 00:10:35;;;;;;;36.33;25.87;;;7.40;99.90;;;;;;4983112;28;20049;-83
2023/04/07 00:13:00;;;;;;;34.23;24.70;;;7.40;99.90;;;;;;4990094;28;20037;-84
2023/04/07 00:15:26;;;;;;;33.83;24.87;;;7.40;99.90;;;;;;4997770;28;20437;-84
2023/04/07 00:17:52;;;;;;;36.67;25.93;;;7.40;99.90;;;;;;4975087;28;20033;-83
2023/04/07 00:20:18;;;;;;;34.17;24.33;;;7.40;99.90;;;;;;5013340;28;20052;-84
2023/04/07 00:22:44;;;;;;;36.77;25.03;;;7.40;99.90;;;;;;4987041;28;20389;-83
2023/04/07 00:25:10;;;;;;;35.17;24.97;;;7.40;99.90;;;;;;4978216;28;20053;-84
2023/04/07 00:27:35;;;;;;;36.77;25.93;;;7.40;99.90;;;;;;4964193;28;20037;-84
2023/04/07 00:30:02;;;;;;;31.87;24.27;;;7.40;99.90;;;;;;4983593;28;20121;-84
2023/04/07 00:32:27;;;;;;;34.47;25.27;;;7.40;99.90;;;;;;4988463;28;20051;-84
2023/04/07 00:34:53;;;;;;;37.83;26.63;;;7.40;99.90;;;;;;5016288;28;20128;-83
2023/04/07 00:37:19;;;;;;;34.70;26.20;;;7.40;99.90;;;;;;4982926;28;20473;-83
2023/04/07 00:39:45;;;;;;;35.57;25.30;;;7.40;99.90;;;;;;4991768;28;20116;-83
2023/04/07 00:42:11;;;;;;;38.23;25.73;;;7.40;99.90;;;;;;5002777;28;20054;-84
2023/04/07 00:44:37;;;;;;;35.93;25.30;;;7.40;99.90;;;;;;4999695;28;20041;-83
2023/04/07 00:47:02;;;;;;;37.73;27.07;;;7.40;99.90;;;;;;4979859;28;20042;-84
2023/04/07 00:49:28;;;;;;;36.73;26.33;;;7.40;99.90;;;;;;4977276;28;20061;-83
2023/04/07 00:51:56;;;;;;;35.70;27.60;;;7.40;99.90;;;;;;4993730;28;20516;-83
2023/04/07 00:54:23;;;;;;;38.47;26.50;;;7.40;99.90;;;;;;5005802;28;20041;-83
2023/04/07 00:56:49;;;;;;;33.27;26.00;;;7.40;99.90;;;;;;4994320;28;20445;-83
2023/04/07 00:59:15;;;;;;;36.63;26.83;;;7.40;99.90;;;;;;4984442;28;20125;-83
2023/04/07 01:01:54;;;;;;;34.30;26.20;;;7.40;99.90;;;;;;5000007;28;20112;-83
2023/04/07 01:04:42;;;;;;;38.70;27.13;;;7.40;99.90;;;;;;5015119;28;20037;-83
2023/04/07 01:07:17;;;;;;;40.90;27.03;;;7.40;99.90;;;;;;5007411;28;20045;-83
2023/04/07 01:09:56;;;;;;;36.97;26.53;;;7.30;99.90;;;;;;4997608;28;20523;-83
2023/04/07 01:12:43;;;;;;;42.07;28.50;;;7.40;99.90;;;;;;5001635;28;20042;-83
2023/04/07 01:15:11;;;;;;;42.90;28.70;;;7.30;99.90;;;;;;4990995;28;20038;-83
2023/04/07 01:17:45;;;;;;;38.23;28.17;;;7.30;99.90;;;;;;5014447;28;20066;-83
2023/04/07 01:20:18;;;;;;;38.33;26.20;;;7.30;99.90;;;;;;5000738;28;20053;-83
2023/04/07 01:22:50;;;;;;;40.63;28.47;;;7.30;99.90;;;;;;4998554;28;20041;-83
2023/04/07 01:25:25;;;;;;;40.38;27.90;;;7.30;99.90;;;;;;4998602;28;20180;-84
2023/04/07 01:28:21;;;;;;;39.07;28.10;;;7.30;99.90;;;;;;4998224;28;20045;-83
2023/04/07 01:30:47;;;;;;;41.73;28.17;;;7.30;99.90;;;;;;4998726;28;20042;-83
2023/04/07 01:33:15;;;;;;;41.43;29.77;;;7.30;99.90;;;;;;4997477;28;20077;-82
2023/04/07 01:35:41;;;;;;;39.37;28.07;;;7.30;99.90;;;;;;4999536;28;20029;-82
2023/04/07 01:38:10;;;;;;;41.53;28.67;;;7.30;99.90;;;;;;4982891;28;20381;-83
2023/04/07 01:40:38;;;;;;;37.57;28.40;;;7.30;99.90;;;;;;4985337;28;20037;-83
2023/04/07 01:43:05;;;;;;;42.20;29.37;;;7.30;99.90;;;;;;5007962;28;20038;-83
2023/04/07 01:45:35;;;;;;;43.67;28.07;;;7.40;99.90;;;;;;4997887;28;20042;-83
2023/04/07 01:48:01;;;;;;;41.57;29.53;;;7.30;99.90;;;;;;4981236;28;20117;-83
2023/04/07 01:50:28;;;;;;;47.40;32.00;;;7.30;99.90;;;;;;4971117;28;20033;-83
2023/04/07 01:52:55;;;;;;;43.47;29.80;;;7.30;99.90;;;;;;4997716;28;20049;-84
2023/04/07 01:55:21;;;;;;;40.33;28.73;;;7.40;99.90;;;;;;4995016;28;20060;-83
2023/04/07 01:57:47;;;;;;;39.97;28.83;;;7.40;99.90;;;;;;5012533;28;20504;-83
2023/04/07 02:00:13;;;;;;;41.90;29.13;;;7.40;99.90;;;;;;4991712;28;20046;-83
2023/04/07 02:02:43;;;;;;;40.97;30.90;;;7.30;99.90;;;;;;4978528;28;20551;-84
2023/04/07 02:05:13;;;;;;;43.10;30.77;;;7.40;99.90;;;;;;4988365;28;20173;-83
2023/04/07 02:07:56;;;;;;;45.60;32.10;;;7.30;99.90;;;;;;4981414;28;20424;-83
2023/04/07 02:10:25;;;;;;;47.27;31.80;;;7.40;99.90;;;;;;4987394;28;20045;-83
2023/04/07 02:12:51;;;;;;;49.27;33.37;;;7.40;99.90;;;;;;4985441;28;20152;-83
2023/04/07 02:15:18;;;;;;;42.63;30.90;;;7.40;99.90;;;;;;4997845;28;20060;-83
2023/04/07 02:17:50;;;;;;;42.73;31.23;;;7.40;99.90;;;;;;4994646;28;20042;-83
2023/04/07 02:20:17;;;;;;;43.87;30.83;;;7.40;99.90;;;;;;4982784;28;20053;-84
2023/04/07 02:22:43;;;;;;;45.40;32.40;;;7.40;99.90;;;;;;5013176;28;20095;-84
2023/04/07 02:25:31;;;;;;;47.23;32.50;;;7.40;99.90;;;;;;5006051;28;20049;-83
2023/04/07 02:27:58;;;;;;;43.67;30.87;;;7.40;99.90;;;;;;4995501;28;20044;-84
2023/04/07 02:30:24;;;;;;;42.43;30.30;;;7.40;99.90;;;;;;4962665;28;20038;-84
2023/04/07 02:32:50;;;;;;;41.43;29.97;;;7.40;99.90;;;;;;4989813;28;20458;-84
2023/04/07 02:35:16;;;;;;;41.57;30.40;;;7.40;99.90;;;;;;5002158;28;20124;-84
2023/04/07 02:37:43;;;;;;;40.93;30.23;;;7.40;99.90;;;;;;5004051;28;20383;-84
2023/04/07 02:40:09;;;;;;;43.10;30.37;;;7.40;99.90;;;;;;4994763;28;20071;-84
2023/04/07 02:42:38;;;;;;;39.20;29.23;;;7.40;99.90;;;;;;4997151;28;20048;-84
2023/04/07 02:45:05;;;;;;;45.10;30.67;;;7.40;99.90;;;;;;5022692;28;20104;-84
2023/04/07 02:47:32;;;;;;;47.67;32.67;;;7.40;99.90;;;;;;4987444;28;20084;-84
2023/04/07 02:49:57;;;;;;;42.87;30.07;;;7.40;99.90;;;;;;5013536;28;20049;-84
2023/04/07 02:52:23;;;;;;;46.03;31.33;;;7.40;99.90;;;;;;4994230;28;20046;-84
2023/04/07 02:54:50;;;;;;;43.57;31.00;;;7.40;99.90;;;;;;4990838;28;20472;-84
2023/04/07 02:57:15;;;;;;;41.63;29.43;;;7.40;99.90;;;;;;5006142;28;20060;-83
2023/04/07 02:59:41;;;;;;;44.10;30.23;;;7.40;99.90;;;;;;5004838;28;20497;-83
2023/04/07 03:02:07;;;;;;;41.77;30.17;;;7.40;99.90;;;;;;4995950;28;20048;-83
2023/04/07 03:04:33;;;;;;;43.07;31.13;;;7.40;99.90;;;;;;5001483;28;20056;-84
2023/04/07 03:06:59;;;;;;;36.93;28.50;;;7.40;99.90;;;;;;4993055;28;20041;-84
2023/04/07 03:09:25;;;;;;;45.33;30.60;;;7.40;99.90;;;;;;5017359;28;20045;-84
2023/04/07 03:11:51;;;;;;;41.43;29.87;;;7.40;99.90;;;;;;4992762;28;20040;-83
2023/04/07 03:14:17;;;;;;;45.03;30.40;;;7.40;99.90;;;;;;4996996;28;20041;-84
2023/04/07 03:16:42;;;;;;;41.43;30.17;;;7.40;99.90;;;;;;5000676;28;20072;-84
2023/04/07 03:19:08;;;;;;;42.57;30.87;;;7.40;99.90;;;;;;5000494;28;20051;-84
2023/04/07 03:21:37;;;;;;;38.63;29.13;;;7.40;99.90;;;;;;5013863;28;20052;-83
2023/04/07 03:24:03;;;;;;;40.03;29.13;;;7.40;99.90;;;;;;5004318;28;20081;-84
2023/04/07 03:26:29;;;;;;;39.53;28.70;;;7.40;99.90;;;;;;4979580;28;20052;-83
2023/04/07 03:28:58;;;;;;;41.43;29.53;;;7.40;99.90;;;;;;5000417;28;20029;-83
2023/04/07 03:31:23;;;;;;;39.70;28.37;;;7.40;99.90;;;;;;5001966;28;20044;-83
2023/04/07 03:33:49;;;;;;;35.93;27.00;;;7.40;99.90;;;;;;4994388;28;20033;-84
2023/04/07 03:36:17;;;;;;;35.87;26.53;;;7.40;99.90;;;;;;4988328;28;20495;-84
2023/04/07 03:38:43;;;;;;;35.80;26.97;;;7.40;99.90;;;;;;5010333;28;20743;-84
2023/04/07 03:41:09;;;;;;;39.03;28.30;;;7.40;99.90;;;;;;4978491;28;20041;-84
2023/04/07 03:43:35;;;;;;;36.37;26.27;;;7.40;99.90;;;;;;4977882;28;20038;-83
2023/04/07 03:46:01;;;;;;;39.63;26.90;;;7.30;99.90;;;;;;4960122;28;20786;-83
2023/04/07 03:48:26;;;;;;;36.20;26.43;;;7.40;99.90;;;;;;4957678;28;20100;-84
2023/04/07 03:50:52;;;;;;;35.20;26.17;;;7.30;99.90;;;;;;4990486;28;20049;-83
2023/04/07 03:53:18;;;;;;;39.47;26.13;;;7.30;99.90;;;;;;5003643;28;20057;-83
2023/04/07 03:55:44;;;;;;;36.37;25.97;;;7.40;99.90;;;;;;4993265;28;20045;-83
2023/04/07 03:58:10;;;;;;;36.77;25.83;;;7.40;99.90;;;;;;4993385;28;20389;-84
2023/04/07 04:00:35;;;;;;;36.07;26.33;;;7.30;99.90;;;;;;4997871;28;20099;-83
2023/04/07 04:03:01;;;;;;;34.30;26.30;;;7.30;99.90;;;;;;4983106;28;20046;-84
2023/04/07 04:05:27;;;;;;;37.53;27.30;;;7.30;99.90;;;;;;5016267;28;20041;-83
2023/04/07 04:07:53;;;;;;;36.23;27.10;;;7.30;99.90;;;;;;5016581;28;20092;-83
2023/04/07 04:10:19;;;;;;;35.23;26.47;;;7.30;99.90;;;;;;4975782;28;20046;-83
2023/04/07 04:12:46;;;;;;;39.60;28.20;;;7.30;99.90;;;;;;4999229;28;20045;-84
2023/04/07 04:15:12;;;;;;;37.13;26.57;;;7.30;99.90;;;;;;4991624;28;20044;-83
2023/04/07 04:17:38;;;;;;;36.57;26.47;;;7.30;99.90;;;;;;5007028;28;20037;-83
2023/04/07 04:20:05;;;;;;;37.80;26.47;;;7.30;99.90;;;;;;4978198;28;20120;-84
2023/04/07 04:22:30;;;;;;;35.83;25.67;;;7.30;99.90;;;;;;4999859;28;20049;-83
2023/04/07 04:24:56;;;;;;;34.90;25.20;;;7.20;99.90;;;;;;4995641;28;20046;-83
2023/04/07 04:27:22;;;;;;;36.60;25.63;;;7.20;99.90;;;;;;5005948;28;20529;-83
2023/04/07 04:29:48;;;;;;;33.87;25.17;;;7.20;99.90;;;;;;4994427;28;20405;-83
2023/04/07 04:32:20;;;;;;;34.83;24.70;;;7.30;99.90;;;;;;4999888;28;20050;-82
2023/04/07 04:34:45;;;;;;;36.67;25.63;;;7.30;99.90;;;;;;5008746;28;20041;-83
2023/04/07 04:37:11;;;;;;;36.17;26.03;;;7.30;99.90;;;;;;5015125;28;20494;-83
2023/04/07 04:39:37;;;;;;;35.33;24.93;;;7.30;99.90;;;;;;4988701;28;20091;-83
2023/04/07 04:42:04;;;;;;;35.00;25.70;;;7.20;99.90;;;;;;5013936;28;20102;-83
2023/04/07 04:44:29;;;;;;;34.37;23.13;;;7.20;99.90;;;;;;4995909;28;20080;-83
2023/04/07 04:46:55;;;;;;;34.87;24.63;;;7.20;99.90;;;;;;4989336;28;20077;-83
2023/04/07 04:49:22;;;;;;;31.87;23.50;;;7.20;99.90;;;;;;4964246;28;20050;-83
2023/04/07 04:51:47;;;;;;;33.50;24.30;;;7.20;99.90;;;;;;5002437;28;20096;-83
2023/04/07 04:54:13;;;;;;;33.77;24.67;;;7.20;99.90;;;;;;4965061;28;20509;-83
2023/04/07 04:56:39;;;;;;;34.47;24.33;;;7.20;99.90;;;;;;4998994;28;20477;-83
2023/04/07 04:59:05;;;;;;;32.70;24.13;;;7.20;99.90;;;;;;4999287;28;20081;-83
2023/04/07 05:01:31;;;;;;;31.90;23.37;;;7.20;99.90;;;;;;4986189;28;20080;-83
2023/04/07 05:03:56;;;;;;;33.27;23.47;;;7.20;99.90;;;;;;4982685;28;20041;-83
2023/04/07 05:06:22;;;;;;;32.90;24.03;;;7.20;99.90;;;;;;5008478;28;20113;-83
2023/04/07 05:08:48;;;;;;;34.53;24.50;;;7.20;99.90;;;;;;5007989;28;20041;-83
2023/04/07 05:11:14;;;;;;;34.73;24.67;;;7.20;99.90;;;;;;4998588;28;20717;-83
2023/04/07 05:13:40;;;;;;;35.20;25.17;;;7.20;99.90;;;;;;4989219;28;20036;-83
2023/04/07 05:16:06;;;;;;;31.00;23.03;;;7.20;99.90;;;;;;5004219;28;20122;-83
2023/04/07 05:18:31;;;;;;;31.93;23.67;;;7.20;99.90;;;;;;4997695;28;20050;-84
2023/04/07 05:20:57;;;;;;;33.40;23.80;;;7.20;99.90;;;;;;4985273;28;20343;-83
2023/04/07 05:23:23;;;;;;;34.03;24.60;;;7.20;99.90;;;;;;4968744;28;20038;-84
2023/04/07 05:25:49;;;;;;;35.13;24.43;;;7.20;99.90;;;;;;5003101;28;20041;-84
2023/04/07 05:28:15;;;;;;;35.00;24.33;;;7.20;99.90;;;;;;4983049;28;20504;-84
2023/04/07 05:30:40;;;;;;;32.10;22.93;;;7.20;99.90;;;;;;4978869;28;20052;-84
2023/04/07 05:33:06;;;;;;;33.60;23.97;;;7.20;99.90;;;;;;4982794;28;20041;-83
2023/04/07 05:35:32;;;;;;;32.80;24.13;;;7.20;99.90;;;;;;4992529;28;20041;-84
2023/04/07 05:37:58;;;;;;;35.70;24.53;;;7.20;99.90;;;;;;4975198;28;20029;-83
2023/04/07 05:40:24;;;;;;;32.87;24.53;;;7.20;99.90;;;;;;4970353;28;20460;-84
2023/04/07 05:42:49;;;;;;;30.40;23.23;;;7.20;99.90;;;;;;4998966;28;20393;-83
2023/04/07 05:45:15;;;;;;;34.80;24.33;;;7.20;99.90;;;;;;5000338;28;20033;-83
2023/04/07 05:47:41;;;;;;;31.57;24.07;;;7.20;99.90;;;;;;4994879;28;20171;-84
2023/04/07 05:50:07;;;;;;;34.17;24.77;;;7.20;99.90;;;;;;4977661;28;20438;-84
2023/04/07 05:52:33;;;;;;;34.13;25.90;;;7.20;99.90;;;;;;4991460;28;20128;-84
2023/04/07 05:54:59;;;;;;;32.30;23.60;;;7.20;99.90;;;;;;4980700;28;20125;-83
2023/04/07 05:57:26;;;;;;;35.33;25.60;;;7.20;99.90;;;;;;4991684;28;20042;-84
2023/04/07 05:59:52;;;;;;;33.67;24.13;;;7.30;99.90;;;;;;4967275;28;20040;-85
2023/04/07 06:02:18;;;;;;;35.93;24.53;;;7.30;99.90;;;;;;4997969;28;20053;-84
2023/04/07 06:04:45;;;;;;;30.73;23.97;;;7.30;99.90;;;;;;4966681;28;20056;-85
2023/04/07 06:07:11;;;;;;;33.73;24.17;;;7.30;99.90;;;;;;4986664;28;20586;-85
2023/04/07 06:09:41;;;;;;;34.13;24.33;;;7.30;99.90;;;;;;4987015;28;20100;-85
2023/04/07 06:12:08;;;;;;;37.27;24.70;;;7.30;99.90;;;;;;5005401;28;20037;-85
2023/04/07 06:14:39;;;;;;;32.90;23.80;;;7.30;99.90;;;;;;4973427;28;20037;-85
2023/04/07 06:17:05;;;;;;;33.03;24.13;;;7.30;99.90;;;;;;4985264;28;20050;-84
2023/04/07 06:19:32;;;;;;;31.30;23.33;;;7.40;99.90;;;;;;4971921;28;20052;-85
2023/04/07 06:21:58;;;;;;;34.23;24.07;;;7.40;99.90;;;;;;5004884;28;20045;-84
2023/04/07 06:24:25;;;;;;;30.40;22.10;;;7.40;99.90;;;;;;4985463;28;20033;-85
2023/04/07 06:26:56;;;;;;;33.07;23.03;;;7.40;99.90;;;;;;4985271;28;20037;-84
2023/04/07 06:29:28;;;;;;;30.30;22.43;;;7.40;99.90;;;;;;4950298;28;20515;-84
2023/04/07 06:32:13;;;;;;;32.00;22.87;;;7.40;99.90;;;;;;5003426;28;20046;-84
2023/04/07 06:34:39;;;;;;;32.20;22.93;;;7.50;99.90;;;;;;4967371;28;20048;-85
2023/04/07 06:37:05;;;;;;;30.00;23.53;;;7.50;99.90;;;;;;5004825;28;20520;-85
2023/04/07 06:39:31;;;;;;;31.83;22.97;;;7.50;99.90;;;;;;4987712;28;20060;-84
2023/04/07 06:42:00;;;;;;;32.90;22.20;;;7.50;99.90;;;;;;4956828;28;20069;-85
2023/04/07 06:44:52;;;;;;;30.30;22.77;;;7.60;99.90;;;;;;4967344;28;20148;-85
2023/04/07 06:47:38;;;;;;;29.60;22.80;;;7.60;99.90;;;;;;4980219;28;20054;-85
2023/04/07 06:50:20;;;;;;;31.07;21.83;;;7.60;99.90;;;;;;4983236;28;20477;-85
2023/04/07 06:52:55;;;;;;;29.77;22.63;;;7.60;99.90;;;;;;4968496;28;20107;-85
2023/04/07 06:55:58;;;;;;;26.60;21.07;;;7.70;99.90;;;;;;4965518;28;20497;-84
2023/04/07 06:58:27;;;;;;;29.70;21.70;;;7.70;99.90;;;;;;4983310;28;20062;-85
2023/04/07 07:00:54;;;;;;;30.70;23.07;;;7.70;99.90;;;;;;4977183;28;20443;-85
2023/04/07 07:03:53;;;;;;;28.00;21.23;;;7.80;99.90;;;;;;4995670;28;20053;-85
2023/04/07 07:06:37;;;;;;;33.37;22.93;;;7.80;99.90;;;;;;4983329;28;20065;-85
2023/04/07 07:09:21;;;;;;;29.73;21.03;;;7.80;99.90;;;;;;4971074;28;20446;-87
2023/04/07 07:11:48;;;;;;;27.00;20.63;;;7.80;99.90;;;;;;4979265;28;20038;-85
2023/04/07 07:14:14;;;;;;;29.70;21.97;;;7.80;99.90;;;;;;4996839;28;20046;-84
2023/04/07 07:16:40;;;;;;;28.43;21.60;;;7.90;99.90;;;;;;4981305;28;20394;-84
2023/04/07 07:19:05;;;;;;;27.80;20.93;;;7.90;99.90;;;;;;4978234;28;20469;-84
2023/04/07 07:21:31;;;;;;;28.43;21.10;;;7.90;99.90;;;;;;4977646;28;20034;-84
2023/04/07 07:23:57;;;;;;;32.87;24.53;;;8.00;99.90;;;;;;4986178;28;20038;-84
2023/04/07 07:26:23;;;;;;;28.80;22.63;;;8.00;99.90;;;;;;4982579;28;20068;-84
2023/04/07 07:28:49;;;;;;;30.90;24.17;;;8.10;99.90;;;;;;4979739;28;20490;-85
2023/04/07 07:31:15;;;;;;;29.53;23.10;;;8.10;99.90;;;;;;4982955;28;20397;-84
2023/04/07 07:33:42;;;;;;;30.50;22.57;;;8.10;99.90;;;;;;4987958;28;20046;-84
2023/04/07 07:36:09;;;;;;;25.87;20.63;;;8.10;99.90;;;;;;4969156;28;20393;-84
2023/04/07 07:38:35;;;;;;;27.77;20.83;;;8.20;99.90;;;;;;5011305;28;20040;-85
2023/04/07 07:41:01;;;;;;;26.17;20.63;;;8.20;99.90;;;;;;4991786;28;20038;-84
2023/04/07 07:43:46;;;;;;;31.87;27.67;;;8.30;99.90;;;;;;5010212;28;20515;-84
2023/04/07 07:46:12;;;;;;;28.87;21.07;;;8.30;99.90;;;;;;4982302;28;20045;-84
2023/04/07 07:48:37;;;;;;;34.93;24.77;;;8.30;99.90;;;;;;5002977;28;20050;-83
2023/04/07 07:51:04;;;;;;;26.60;20.00;;;8.30;99.90;;;;;;4999012;28;20054;-84
2023/04/07 07:53:42;;;;;;;45.20;27.30;;;8.30;99.90;;;;;;4985973;28;20082;-85
2023/04/07 07:56:07;;;;;;;28.30;19.43;;;8.30;99.90;;;;;;4969172;28;20122;-84
2023/04/07 07:58:33;;;;;;;35.60;23.20;;;8.40;99.90;;;;;;4971434;28;20120;-84
2023/04/07 08:00:59;;;;;;;40.37;25.50;;;8.40;99.90;;;;;;4999521;28;20103;-85
2023/04/07 08:03:25;;;;;;;23.03;17.87;;;8.40;99.90;;;;;;4981379;28;20710;-85
2023/04/07 08:05:56;;;;;;;24.40;18.23;;;8.40;99.90;;;;;;4986434;28;20041;-85
2023/04/07 08:08:28;;;;;;;26.67;19.33;;;8.50;99.90;;;;;;4980940;28;20089;-84
2023/04/07 08:10:54;;;;;;;24.80;18.03;;;8.50;99.90;;;;;;4997469;28;20064;-85
2023/04/07 08:13:19;;;;;;;23.27;18.13;;;8.40;99.90;;;;;;4984180;28;20046;-85
2023/04/07 08:15:48;;;;;;;20.63;16.43;;;8.40;99.90;;;;;;4983250;28;20127;-85
2023/04/07 08:18:17;;;;;;;21.73;17.52;;;8.50;99.90;;;;;;4986344;28;20050;-85
2023/04/07 08:20:42;;;;;;;23.03;17.80;;;8.50;99.90;;;;;;4964103;28;20098;-84
2023/04/07 08:23:08;;;;;;;23.90;17.40;;;8.50;99.90;;;;;;4999489;28;20042;-84
2023/04/07 08:25:41;;;;;;;22.63;18.10;;;8.50;99.90;;;;;;4982650;28;20041;-85
2023/04/07 08:28:35;;;;;;;20.33;16.98;;;8.60;99.90;;;;;;4986562;28;21050;-85
2023/04/07 08:31:01;;;;;;;28.87;21.53;;;8.60;99.90;;;;;;4998031;28;20046;-85
2023/04/07 08:33:27;;;;;;;22.07;17.17;;;8.60;99.90;;;;;;4968125;28;20091;-85
2023/04/07 08:35:52;;;;;;;23.60;16.93;;;8.60;99.90;;;;;;4988141;28;20393;-85
2023/04/07 08:38:18;;;;;;;21.80;16.97;;;8.50;99.90;;;;;;4972293;28;20465;-84
2023/04/07 08:40:44;;;;;;;20.67;16.67;;;8.60;99.90;;;;;;5001834;28;20496;-85
2023/04/07 08:43:29;;;;;;;22.57;17.10;;;8.60;99.90;;;;;;4984081;28;20042;-84
2023/04/07 08:45:56;;;;;;;21.10;16.20;;;8.60;99.90;;;;;;4982319;28;20053;-84
2023/04/07 08:48:32;;;;;;;21.40;16.73;;;8.70;99.90;;;;;;4987015;28;20065;-84
2023/04/07 08:51:09;;;;;;;21.93;17.90;;;8.70;99.90;;;;;;4986334;28;20047;-85
2023/04/07 08:53:50;;;;;;;21.80;17.73;;;8.70;99.90;;;;;;4997445;28;20066;-86
2023/04/07 08:56:22;;;;;;;25.83;19.47;;;8.70;99.90;;;;;;4997845;28;20050;-85
2023/04/07 08:58:48;;;;;;;25.37;19.03;;;8.80;99.90;;;;;;4983541;28;20038;-86
2023/04/07 09:01:15;;;;;;;22.77;18.37;;;8.80;99.90;;;;;;5000258;28;20056;-85
2023/04/07 09:03:43;;;;;;;21.80;18.67;;;8.80;99.90;;;;;;4997777;28;20533;-85
2023/04/07 09:06:12;;;;;;;21.43;17.57;;;8.80;99.90;;;;;;4982046;28;20042;-85
2023/04/07 09:08:38;;;;;;;22.30;17.33;;;8.80;99.90;;;;;;4997805;28;20048;-85
2023/04/07 09:11:04;;;;;;;25.13;19.07;;;8.90;99.90;;;;;;4984669;28;20038;-85
2023/04/07 09:13:30;;;;;;;26.20;20.07;;;8.90;99.90;;;;;;4984922;28;20061;-85
2023/04/07 09:15:58;;;;;;;28.20;21.50;;;9.00;99.90;;;;;;4983883;28;20119;-85
2023/04/07 09:18:24;;;;;;;28.27;20.87;;;9.00;99.90;;;;;;4986351;28;20548;-85
2023/04/07 09:21:04;;;;;;;28.20;22.30;;;9.00;99.90;;;;;;4986342;28;20034;-85
2023/04/07 09:23:38;;;;;;;24.03;19.40;;;9.00;99.90;;;;;;5000643;28;20042;-84
2023/04/07 09:26:23;;;;;;;23.33;17.83;;;9.00;99.90;;;;;;4981226;28;20375;-85
2023/04/07 09:28:58;;;;;;;22.37;16.33;;;9.00;99.90;;;;;;4980000;28;20061;-85
2023/04/07 09:32:03;;;;;;;21.13;16.63;;;9.00;99.90;;;;;;4995888;28;20042;-85
2023/04/07 09:34:34;;;;;;;21.37;16.60;;;9.10;99.90;;;;;;4927239;29;20043;-85
2023/04/07 09:37:01;;;;;;;22.17;16.77;;;9.10;99.90;;;;;;4922766;29;20460;-85
2023/04/07 09:39:27;;;;;;;20.43;16.17;;;9.20;99.90;;;;;;4972476;28;20465;-85
2023/04/07 09:41:53;;;;;;;18.63;14.03;;;9.20;99.90;;;;;;4994765;28;20456;-85
2023/04/07 09:44:19;;;;;;;19.93;15.10;;;9.20;99.90;;;;;;4994815;28;20053;-85
2023/04/07 09:46:52;;;;;;;19.13;14.70;;;9.20;99.90;;;;;;4994572;28;20095;-85
2023/04/07 09:49:19;;;;;;;17.80;14.20;;;9.30;99.90;;;;;;4996986;28;20042;-84
2023/04/07 09:51:58;;;;;;;15.37;12.50;;;9.30;99.90;;;;;;4979657;28;20070;-86
2023/04/07 09:54:33;;;;;;;15.17;12.10;;;9.50;99.90;;;;;;5003098;28;20130;-85
2023/04/07 09:57:01;;;;;;;18.67;14.57;;;9.50;99.90;;;;;;4987338;28;20061;-85
2023/04/07 09:59:31;;;;;;;15.13;11.83;;;9.60;99.90;;;;;;4991823;28;20045;-85
2023/04/07 10:01:58;;;;;;;14.87;12.40;;;9.60;99.90;;;;;;4978357;28;20504;-84
2023/04/07 10:04:24;;;;;;;16.23;13.27;;;9.70;99.90;;;;;;4964482;28;20060;-85
2023/04/07 10:06:55;;;;;;;17.83;14.07;;;9.80;99.90;;;;;;4990215;28;20049;-85
2023/04/07 10:09:27;;;;;;;17.27;14.13;;;9.90;99.90;;;;;;4987976;28;20065;-85
2023/04/07 10:11:55;;;;;;;17.73;13.40;;;9.90;99.90;;;;;;4999963;28;20431;-85
2023/04/07 10:14:35;;;;;;;19.63;14.40;;;9.90;99.90;;;;;;4999680;28;20049;-84
2023/04/07 10:17:05;;;;;;;17.10;14.03;;;10.00;99.90;;;;;;4981459;28;20101;-85
2023/04/07 10:19:33;;;;;;;19.17;13.90;;;10.00;99.90;;;;;;4970574;28;20046;-84
2023/04/07 10:22:02;;;;;;;15.87;12.87;;;10.00;99.90;;;;;;5004183;28;20045;-85
2023/04/07 10:24:42;;;;;;;14.03;11.10;;;10.00;99.90;;;;;;5001099;28;20386;-84
2023/04/07 10:27:20;;;;;;;20.93;15.40;;;10.00;99.90;;;;;;4986540;28;20037;-84
2023/04/07 10:29:59;;;;;;;19.37;13.70;;;10.00;99.90;;;;;;4986463;28;20042;-85
2023/04/07 10:32:25;;;;;;;22.30;15.90;;;10.10;99.90;;;;;;4986986;28;20045;-84
2023/04/07 10:34:54;;;;;;;16.30;12.80;;;10.20;99.90;;;;;;4988584;28;20037;-83
2023/04/07 10:37:21;;;;;;;18.60;13.53;;;10.30;99.90;;;;;;5002777;28;20104;-84
2023/04/07 10:39:50;;;;;;;17.93;13.17;;;10.30;99.90;;;;;;4984430;28;20057;-84
2023/04/07 10:42:37;;;;;;;16.97;12.97;;;10.30;99.90;;;;;;4980732;28;20046;-84
2023/04/07 10:45:05;;;;;;;17.50;12.77;;;10.40;99.90;;;;;;4998545;28;20042;-84
2023/04/07 10:47:31;;;;;;;15.83;12.60;;;10.50;99.90;;;;;;5005664;28;20106;-84
2023/04/07 10:50:16;;;;;;;15.87;12.23;;;10.60;99.90;;;;;;4970153;28;20046;-84
2023/04/07 10:52:43;;;;;;;14.30;11.97;;;10.70;99.90;;;;;;5006549;28;20060;-84
2023/04/07 10:55:32;;;;;;;12.73;10.63;;;10.70;99.90;;;;;;4975499;28;20048;-84
2023/04/07 10:58:16;;;;;;;13.57;11.23;;;10.70;99.90;;;;;;4992553;28;21448;-84
2023/04/07 11:01:05;;;;;;;13.83;11.20;;;10.70;99.90;;;;;;5009663;28;20077;-84
2023/04/07 11:03:39;;;;;;;14.30;12.03;;;10.70;99.90;;;;;;5012118;28;20047;-84
2023/04/07 11:06:10;;;;;;;14.13;10.90;;;10.70;99.90;;;;;;5010340;28;20041;-83
2023/04/07 11:08:41;;;;;;;11.57;9.83;;;10.70;99.90;;;;;;4990101;28;20101;-85
2023/04/07 11:11:08;;;;;;;13.47;10.87;;;10.60;99.90;;;;;;5001555;28;20049;-84
2023/04/07 11:13:45;;;;;;;15.83;11.07;;;10.60;99.90;;;;;;4995118;28;20045;-84
2023/04/07 11:16:12;;;;;;;12.00;9.93;;;10.60;99.90;;;;;;5014674;28;20029;-84
2023/04/07 11:18:38;;;;;;;12.23;9.87;;;10.60;99.90;;;;;;5000863;28;20048;-84
2023/04/07 11:21:05;;;;;;;13.10;10.83;;;10.70;99.90;;;;;;4984744;28;20045;-84
2023/04/07 11:23:39;;;;;;;12.33;10.10;;;10.80;99.90;;;;;;4991860;28;20049;-84
2023/04/07 11:26:05;;;;;;;12.90;10.10;;;10.90;99.90;;;;;;4996977;28;20049;-83
2023/04/07 11:28:31;;;;;;;10.47;9.17;;;11.00;99.90;;;;;;5015474;28;20076;-83
2023/04/07 11:30:58;;;;;;;12.70;11.20;;;11.00;99.90;;;;;;4972591;28;20080;-84
2023/04/07 11:33:30;;;;;;;14.87;9.50;;;11.20;99.90;;;;;;4981442;28;20038;-84
2023/04/07 11:35:57;;;;;;;;;;;11.30;99.90;;;;;;5010258;28;20048;-84
2023/04/07 11:38:29;;;;;;;11.23;9.13;;;11.40;99.90;;;;;;5012354;28;19922;-84
2023/04/07 11:40:55;;;;;;;9.70;8.55;;;11.40;99.90;;;;;;5013281;28;20533;-83
2023/04/07 11:43:25;;;;;;;13.83;9.53;;;11.40;99.90;;;;;;4988412;28;20112;-84
2023/04/07 11:46:17;;;;;;;10.60;9.20;;;11.50;99.90;;;;;;5007812;28;20045;-84
2023/04/07 11:48:44;;;;;;;;;;;11.50;99.90;;;;;;4971487;28;20080;-83
2023/04/07 11:51:17;;;;;;;9.93;8.23;;;11.50;99.90;;;;;;5006557;28;19935;-84
2023/04/07 11:53:43;;;;;;;9.53;7.87;;;11.50;99.90;;;;;;4993405;28;20045;-84
2023/04/07 11:56:17;;;;;;;8.27;7.37;;;11.50;99.90;;;;;;4990279;28;20050;-83
2023/04/07 11:58:47;;;;;;;10.63;7.80;;;11.50;99.90;;;;;;4991857;28;20133;-83
2023/04/07 12:01:13;;;;;;;8.57;7.63;;;11.60;99.90;;;;;;4991595;28;20120;-84
2023/04/07 12:03:57;;;;;;;9.87;7.77;;;11.60;99.90;;;;;;4993556;28;20477;-84
2023/04/07 12:06:37;;;;;;;8.07;6.80;;;11.60;99.90;;;;;;5008178;28;20038;-84
2023/04/07 12:09:07;;;;;;;8.13;7.33;;;11.70;99.90;;;;;;4994961;28;20037;-84
2023/04/07 12:11:33;;;;;;;7.60;6.27;;;11.70;99.90;;;;;;5008838;28;20037;-84
2023/04/07 12:13:59;;;;;;;8.10;7.10;;;11.80;99.90;;;;;;5008280;28;20432;-84
2023/04/07 12:16:25;;;;;;;7.70;6.43;;;11.80;99.90;;;;;;4993027;28;20044;-84
2023/04/07 12:18:51;;;;;;;9.43;6.67;;;11.90;99.90;;;;;;5008253;28;20104;-84
2023/04/07 12:21:18;;;;;;;9.40;7.23;;;12.00;99.90;;;;;;4966363;28;20053;-85
2023/04/07 12:23:46;;;;;;;8.65;7.68;;;12.10;99.90;;;;;;4987653;28;20041;-84
2023/04/07 12:26:12;;;;;;;9.47;7.37;;;12.10;99.90;;;;;;4989807;28;20383;-85
2023/04/07 12:28:38;;;;;;;8.98;7.15;;;12.10;99.90;;;;;;5009793;28;20497;-84
2023/04/07 12:31:04;;;;;;;7.68;6.10;;;12.10;99.90;;;;;;5007100;28;20042;-84
2023/04/07 12:33:31;;;;;;;8.40;7.03;;;12.00;99.90;;;;;;4999576;28;20072;-85
2023/04/07 12:35:57;;;;;;;6.68;5.97;;;12.00;99.90;;;;;;5015696;28;20409;-84
2023/04/07 12:38:23;;;;;;;8.20;7.13;;;12.00;99.90;;;;;;4985741;28;20045;-83
2023/04/07 12:40:49;;;;;;;7.75;6.95;;;12.00;99.90;;;;;;4999665;28;20063;-85
2023/04/07 12:43:16;;;;;;;8.32;7.13;;;12.10;99.90;;;;;;5011890;28;20045;-87
2023/04/07 12:45:41;;;;;;;9.77;7.53;;;12.10;99.90;;;;;;4978938;28;20048;-86
2023/04/07 12:48:07;;;;;;;9.93;7.50;;;12.10;99.90;;;;;;5015107;28;20120;-85